Aston Clinton, United Kingdom
Current Conditions -  °F | °C
As of 9:50 AM on Tuesday 21 Oct 2014 (Local Time) from EGGW Reporting Station
Scattered Clouds Scattered Clouds  
Wind Chill: 52°   Ceiling: Unl
Heat Index: 52°   Visibility: 6mi
Dew Point: 46°   Wind: 28mph
Humidity: 82%   Direction: 280°W
Pressure: 29.56"   Gusts: NA
Location:  51.8°N, 0.73°W
Report Text: EGGW 210850Z 28024KT 9999 SCT045 11/08 Q1001
Loading
Personal Weather Stations






























Interactive Weather Map
Tropical Storm Tracking
New forecast layout! Learn more

10-Day Weather Forecast

Advertisements
Track Severe Weather on mobile